createdAt,value
2018-06-28T00:00:29.018Z,2.23
2018-06-28T00:02:56.662Z,2.40
2018-06-28T00:05:24.432Z,2.33
2018-06-28T00:07:52.219Z,2.57
2018-06-28T00:10:19.955Z,2.40
2018-06-28T00:12:47.719Z,2.60
2018-06-28T00:15:15.501Z,2.60
2018-06-28T00:17:43.124Z,2.87
2018-06-28T00:20:10.914Z,2.40
2018-06-28T00:22:38.706Z,2.30
2018-06-28T00:25:06.467Z,2.60
2018-06-28T00:27:34.267Z,2.20
2018-06-28T00:30:02.304Z,3.03
2018-06-28T00:32:30.074Z,2.73
2018-06-28T00:34:57.911Z,3.00
2018-06-28T00:37:25.671Z,3.10
2018-06-28T00:39:53.320Z,3.20
2018-06-28T00:42:21.098Z,3.40
2018-06-28T00:44:48.852Z,3.07
2018-06-28T00:47:16.715Z,2.97
2018-06-28T00:49:44.597Z,2.93
2018-06-28T00:52:12.365Z,2.97
2018-06-28T00:54:40.096Z,2.50
2018-06-28T00:57:07.893Z,2.80
2018-06-28T00:59:35.687Z,2.77
2018-06-28T01:02:03.448Z,2.80
2018-06-28T01:04:32.316Z,2.50
2018-06-28T01:07:00.080Z,3.00
2018-06-28T01:09:27.861Z,3.37
2018-06-28T01:11:55.687Z,2.93
2018-06-28T01:14:23.468Z,2.90
2018-06-28T01:16:51.360Z,3.10
2018-06-28T01:19:19.168Z,3.17
2018-06-28T01:21:47.008Z,2.70
2018-06-28T01:24:14.756Z,3.00
2018-06-28T01:26:42.504Z,3.30
2018-06-28T01:29:10.265Z,3.00
2018-06-28T01:31:38.034Z,3.73
2018-06-28T01:34:06.663Z,3.20
2018-06-28T01:36:34.416Z,2.73
2018-06-28T01:39:02.315Z,3.00
2018-06-28T01:42:41.280Z,3.63
2018-06-28T01:45:09.011Z,2.73
2018-06-28T01:47:36.833Z,3.47
2018-06-28T01:50:04.619Z,3.37
2018-06-28T01:52:32.368Z,3.77
2018-06-28T01:55:00.159Z,3.10
2018-06-28T01:57:27.924Z,3.67
2018-06-28T01:59:55.685Z,3.20
2018-06-28T02:02:23.527Z,3.20
2018-06-28T02:04:51.248Z,3.37
2018-06-28T02:07:18.976Z,3.87
2018-06-28T02:09:46.697Z,3.80
2018-06-28T02:12:14.446Z,4.40
2018-06-28T02:14:42.189Z,4.33
2018-06-28T02:17:09.974Z,3.70
2018-06-28T02:19:37.741Z,2.97
2018-06-28T02:22:05.821Z,3.70
2018-06-28T02:24:33.637Z,3.17
2018-06-28T02:27:01.392Z,3.77
2018-06-28T02:29:29.132Z,3.90
2018-06-28T02:31:56.751Z,3.20
2018-06-28T02:34:24.489Z,4.17
2018-06-28T02:36:52.250Z,4.30
2018-06-28T02:39:19.971Z,4.20
2018-06-28T02:41:47.753Z,8.70
2018-06-28T02:44:15.375Z,8.27
2018-06-28T02:46:43.104Z,6.77
2018-06-28T02:49:10.873Z,6.70
2018-06-28T02:51:39.051Z,5.93
2018-06-28T02:54:06.954Z,4.77
2018-06-28T02:56:34.696Z,4.33
2018-06-28T02:59:02.483Z,3.73
2018-06-28T03:01:30.229Z,4.10
2018-06-28T03:03:58.024Z,3.93
2018-06-28T03:06:25.839Z,3.80
2018-06-28T03:08:54.515Z,4.20
2018-06-28T03:11:22.256Z,3.07
2018-06-28T03:13:49.883Z,3.57
2018-06-28T03:16:17.792Z,3.20
2018-06-28T03:18:45.444Z,3.57
2018-06-28T03:21:13.056Z,3.93
2018-06-28T03:23:40.803Z,3.20
2018-06-28T03:26:08.572Z,3.00
2018-06-28T03:28:36.312Z,3.23
2018-06-28T03:31:04.149Z,4.33
2018-06-28T03:33:31.841Z,3.97
2018-06-28T03:35:59.636Z,4.13
2018-06-28T03:38:27.364Z,3.50
2018-06-28T03:40:54.969Z,3.30
2018-06-28T03:43:22.699Z,3.40
2018-06-28T03:45:50.560Z,4.40
2018-06-28T03:48:18.193Z,4.10
2018-06-28T03:50:45.954Z,4.37
2018-06-28T03:53:13.692Z,4.10
2018-06-28T03:55:41.436Z,4.00
2018-06-28T03:58:09.197Z,4.67
2018-06-28T04:00:36.944Z,4.20
2018-06-28T04:03:04.708Z,4.27
2018-06-28T04:05:32.492Z,4.70
2018-06-28T04:08:00.248Z,4.67
2018-06-28T04:10:28.000Z,4.63
2018-06-28T04:12:55.773Z,4.43
2018-06-28T04:15:23.549Z,4.40
2018-06-28T04:17:51.300Z,3.97
2018-06-28T04:20:19.052Z,3.80
2018-06-28T04:22:46.827Z,4.53
2018-06-28T04:25:14.632Z,4.73
2018-06-28T04:27:42.362Z,4.13
2018-06-28T04:30:10.141Z,4.10
2018-06-28T04:32:37.894Z,4.13
2018-06-28T04:35:05.681Z,4.70
2018-06-28T04:37:33.419Z,3.70
2018-06-28T04:40:01.174Z,4.13
2018-06-28T04:42:28.910Z,3.57
2018-06-28T04:44:56.671Z,3.57
2018-06-28T04:47:24.428Z,3.70
2018-06-28T04:49:52.197Z,4.37
2018-06-28T04:52:19.921Z,4.23
2018-06-28T04:54:47.698Z,4.13
2018-06-28T04:57:15.427Z,3.77
2018-06-28T04:59:43.192Z,4.67
2018-06-28T05:02:10.911Z,4.47
2018-06-28T05:04:38.675Z,4.37
2018-06-28T05:07:06.458Z,4.47
2018-06-28T05:09:34.204Z,4.10
2018-06-28T05:12:01.953Z,4.30
2018-06-28T05:14:29.720Z,3.60
2018-06-28T05:16:57.479Z,3.80
2018-06-28T05:19:25.272Z,4.20
2018-06-28T05:21:53.009Z,4.60
2018-06-28T05:24:20.800Z,3.70
2018-06-28T05:26:48.540Z,3.60
2018-06-28T05:29:16.345Z,4.10
2018-06-28T05:31:44.075Z,3.93
2018-06-28T05:34:11.937Z,4.13
2018-06-28T05:36:39.700Z,3.10
2018-06-28T05:39:08.812Z,2.77
2018-06-28T05:41:36.597Z,3.03
2018-06-28T05:44:04.404Z,3.27
2018-06-28T05:46:32.176Z,3.13
2018-06-28T05:48:59.951Z,2.87
2018-06-28T05:51:27.700Z,2.63
2018-06-28T05:53:55.432Z,3.10
2018-06-28T05:56:23.276Z,3.00
2018-06-28T05:58:51.044Z,3.83
2018-06-28T06:01:18.848Z,3.20
2018-06-28T06:03:46.524Z,3.20
2018-06-28T06:06:14.268Z,3.70
2018-06-28T06:08:41.975Z,3.77
2018-06-28T06:11:09.780Z,3.00
2018-06-28T06:13:37.545Z,3.30
2018-06-28T06:16:05.308Z,2.70
2018-06-28T06:18:33.066Z,2.70
2018-06-28T06:21:00.715Z,2.57
2018-06-28T06:23:28.464Z,2.87
2018-06-28T06:25:56.362Z,4.53
2018-06-28T06:28:24.132Z,3.47
2018-06-28T06:30:51.765Z,3.30
2018-06-28T06:33:19.552Z,3.30
2018-06-28T06:35:47.356Z,3.63
2018-06-28T06:38:15.157Z,3.20
2018-06-28T06:40:43.844Z,4.00
2018-06-28T06:43:11.611Z,3.37
2018-06-28T06:45:39.344Z,2.70
2018-06-28T06:48:07.100Z,3.20
2018-06-28T06:50:34.848Z,3.10
2018-06-28T06:53:02.487Z,3.70
2018-06-28T06:55:30.223Z,3.40
2018-06-28T06:57:57.973Z,3.67
2018-06-28T07:00:25.764Z,4.10
2018-06-28T07:02:53.507Z,3.13
2018-06-28T07:05:21.224Z,2.40
2018-06-28T07:07:48.835Z,3.27
2018-06-28T07:10:16.550Z,3.40
2018-06-28T07:12:44.199Z,4.77
2018-06-28T07:15:12.303Z,3.57
2018-06-28T07:17:40.096Z,3.13
2018-06-28T07:20:07.803Z,4.70
2018-06-28T07:22:35.568Z,2.90
2018-06-28T07:25:03.414Z,3.63
2018-06-28T07:27:31.216Z,2.83
2018-06-28T07:29:59.020Z,3.27
2018-06-28T07:32:26.587Z,3.23
2018-06-28T07:34:54.347Z,2.77
2018-06-28T07:37:22.116Z,3.20
2018-06-28T07:39:49.820Z,3.73
2018-06-28T07:42:17.570Z,3.27
2018-06-28T07:44:45.317Z,3.30
2018-06-28T07:47:13.100Z,2.90
2018-06-28T07:49:40.888Z,2.67
2018-06-28T07:52:08.514Z,3.67
2018-06-28T07:54:36.282Z,3.10
2018-06-28T07:57:04.060Z,3.30
2018-06-28T07:59:31.884Z,2.93
2018-06-28T08:01:59.643Z,3.30
2018-06-28T08:04:27.451Z,3.03
2018-06-28T08:06:55.203Z,2.50
2018-06-28T08:09:22.972Z,2.80
2018-06-28T08:11:50.700Z,2.50
2018-06-28T08:14:18.412Z,2.90
2018-06-28T08:16:46.212Z,3.00
2018-06-28T08:19:14.044Z,2.53
2018-06-28T08:21:41.791Z,3.07
2018-06-28T08:24:09.533Z,2.93
2018-06-28T08:26:37.532Z,2.47
2018-06-28T08:29:05.405Z,2.97
2018-06-28T08:31:33.131Z,2.70
2018-06-28T08:34:00.924Z,2.80
2018-06-28T08:36:28.702Z,3.10
2018-06-28T08:38:56.520Z,2.50
2018-06-28T08:41:24.328Z,2.43
2018-06-28T08:43:52.124Z,2.70
2018-06-28T08:46:19.884Z,2.27
2018-06-28T08:48:47.738Z,2.50
2018-06-28T08:51:15.355Z,2.20
2018-06-28T08:53:43.188Z,2.10
2018-06-28T08:56:11.036Z,2.17
2018-06-28T08:58:38.807Z,4.80
2018-06-28T09:01:06.624Z,2.07
2018-06-28T09:03:34.433Z,2.00
2018-06-28T09:06:02.192Z,2.50
2018-06-28T09:08:29.972Z,1.83
2018-06-28T09:10:57.724Z,2.50
2018-06-28T09:13:25.375Z,2.30
2018-06-28T09:15:53.152Z,2.30
2018-06-28T09:18:20.832Z,2.13
2018-06-28T09:20:48.566Z,2.37
2018-06-28T09:23:16.408Z,3.30
2018-06-28T09:25:44.219Z,2.80
2018-06-28T09:28:12.231Z,2.30
2018-06-28T09:30:40.120Z,2.20
2018-06-28T09:33:07.904Z,2.20
2018-06-28T09:35:35.600Z,2.37
2018-06-28T09:38:03.432Z,2.30
2018-06-28T09:40:31.220Z,2.30
2018-06-28T09:42:59.036Z,3.03
2018-06-28T09:45:26.831Z,2.00
2018-06-28T09:47:54.611Z,1.90
2018-06-28T09:50:22.232Z,2.33
2018-06-28T09:52:49.989Z,2.23
2018-06-28T09:55:18.220Z,2.20
2018-06-28T09:57:46.119Z,2.20
2018-06-28T10:00:18.463Z,2.30
2018-06-28T10:02:46.479Z,2.00
2018-06-28T10:05:14.235Z,2.13
2018-06-28T10:07:41.984Z,1.80
2018-06-28T10:10:09.772Z,1.60
2018-06-28T10:12:37.562Z,2.43
2018-06-28T10:15:05.844Z,2.07
2018-06-28T10:17:33.647Z,2.47
2018-06-28T10:20:01.472Z,1.87
2018-06-28T10:22:29.199Z,2.20
2018-06-28T10:24:57.018Z,2.23
2018-06-28T10:27:24.800Z,2.33
2018-06-28T10:29:52.562Z,2.80
2018-06-28T10:32:20.345Z,1.90
2018-06-28T10:34:48.139Z,2.07
2018-06-28T10:37:15.961Z,2.93
2018-06-28T10:39:43.736Z,2.10
2018-06-28T10:42:11.508Z,2.10
2018-06-28T10:44:39.288Z,2.20
2018-06-28T10:47:07.504Z,2.47
2018-06-28T10:49:35.300Z,2.30
2018-06-28T10:52:03.102Z,2.30
2018-06-28T10:54:30.903Z,2.10
2018-06-28T10:56:58.555Z,2.40
2018-06-28T10:59:26.329Z,1.73
2018-06-28T11:01:53.956Z,2.30
2018-06-28T11:04:21.692Z,2.23
2018-06-28T11:06:49.455Z,2.10
2018-06-28T11:09:17.204Z,2.03
2018-06-28T11:11:45.015Z,2.10
2018-06-28T11:14:13.329Z,1.83
2018-06-28T11:16:40.954Z,1.90
2018-06-28T11:19:08.748Z,2.37
2018-06-28T11:21:36.536Z,1.80
2018-06-28T11:24:04.426Z,2.00
2018-06-28T11:26:32.253Z,2.40
2018-06-28T11:29:00.061Z,2.00
2018-06-28T11:31:27.849Z,2.40
2018-06-28T11:33:55.672Z,2.47
2018-06-28T11:36:23.479Z,2.10
2018-06-28T11:38:51.095Z,3.10
2018-06-28T11:41:18.878Z,1.63
2018-06-28T11:43:46.655Z,1.50
2018-06-28T11:46:14.439Z,2.20
2018-06-28T11:48:42.259Z,2.00
2018-06-28T11:51:10.029Z,1.57
2018-06-28T11:53:37.861Z,1.70
2018-06-28T11:56:05.609Z,2.10
2018-06-28T11:58:33.649Z,2.00
2018-06-28T12:01:13.924Z,1.70
2018-06-28T12:03:54.336Z,1.80
2018-06-28T12:06:34.821Z,2.13
2018-06-28T12:09:15.104Z,2.00
2018-06-28T12:11:55.346Z,1.80
2018-06-28T12:14:35.846Z,1.83
2018-06-28T12:17:15.941Z,1.87
2018-06-28T12:19:56.144Z,2.00
2018-06-28T12:22:36.546Z,2.10
2018-06-28T12:25:16.622Z,1.83
2018-06-28T12:27:57.050Z,1.77
2018-06-28T12:30:37.276Z,1.67
2018-06-28T12:33:17.358Z,1.93
2018-06-28T12:36:00.196Z,1.80
2018-06-28T12:38:40.209Z,1.93
2018-06-28T12:41:20.235Z,2.33
2018-06-28T12:44:00.530Z,2.10
2018-06-28T12:47:55.188Z,2.97
2018-06-28T12:50:35.526Z,1.87
2018-06-28T12:53:15.691Z,2.03
2018-06-28T12:56:28.403Z,2.47
2018-06-28T12:59:10.617Z,3.00
2018-06-28T13:01:51.062Z,2.97
2018-06-28T13:04:31.417Z,1.80
2018-06-28T13:07:11.571Z,2.53
2018-06-28T13:09:51.907Z,2.10
2018-06-28T13:12:31.986Z,2.27
2018-06-28T13:15:13.215Z,2.30
2018-06-28T13:17:53.543Z,1.90
2018-06-28T13:20:33.647Z,2.93
2018-06-28T13:23:13.958Z,2.40
2018-06-28T13:25:55.283Z,1.90
2018-06-28T13:28:35.505Z,2.30
2018-06-28T13:31:15.855Z,2.47
2018-06-28T13:33:56.117Z,2.30
2018-06-28T13:36:36.572Z,2.70
2018-06-28T13:39:16.841Z,2.13
2018-06-28T13:41:57.021Z,2.30
2018-06-28T13:44:37.304Z,1.90
2018-06-28T13:47:18.393Z,3.23
2018-06-28T13:49:58.563Z,2.70
2018-06-28T13:52:38.817Z,2.70
2018-06-28T13:55:19.011Z,2.60
2018-06-28T13:57:59.290Z,2.60
2018-06-28T14:00:39.485Z,2.90
2018-06-28T14:03:19.765Z,2.50
2018-06-28T14:06:00.110Z,2.77
2018-06-28T14:08:40.415Z,2.97
2018-06-28T14:11:20.906Z,2.90
2018-06-28T14:14:01.063Z,2.63
2018-06-28T14:16:41.227Z,3.53
2018-06-28T14:19:21.395Z,2.47
2018-06-28T14:22:01.823Z,3.07
2018-06-28T14:24:42.244Z,2.60
2018-06-28T14:27:22.670Z,2.40
2018-06-28T14:30:02.980Z,3.00
2018-06-28T14:32:44.021Z,2.47
2018-06-28T14:35:24.543Z,3.30
2018-06-28T14:38:04.661Z,3.10
2018-06-28T14:40:45.006Z,2.80
2018-06-28T14:43:24.895Z,3.37
2018-06-28T14:46:05.652Z,3.23
2018-06-28T14:48:45.758Z,2.33
2018-06-28T14:51:25.790Z,2.00
2018-06-28T14:54:05.942Z,2.30
2018-06-28T14:56:46.208Z,2.30
2018-06-28T14:59:26.389Z,2.40
2018-06-28T15:02:06.714Z,2.20
2018-06-28T15:04:47.000Z,2.63
2018-06-28T15:07:27.304Z,2.13
2018-06-28T15:10:07.600Z,2.30
2018-06-28T15:12:47.838Z,2.80
2018-06-28T15:15:28.220Z,2.17
2018-06-28T15:18:08.409Z,2.27
2018-06-28T15:20:48.880Z,2.63
2018-06-28T15:23:29.315Z,2.27
2018-06-28T15:26:10.216Z,2.43
2018-06-28T15:28:50.428Z,2.20
2018-06-28T15:31:30.698Z,2.77
2018-06-28T15:34:10.898Z,2.20
2018-06-28T15:36:51.380Z,2.17
2018-06-28T15:39:31.791Z,2.50
2018-06-28T15:42:12.056Z,2.53
2018-06-28T15:44:52.287Z,2.90
2018-06-28T15:47:32.577Z,2.93
2018-06-28T15:50:12.821Z,2.57
2018-06-28T15:52:53.132Z,2.37
2018-06-28T15:55:33.480Z,2.40
2018-06-28T15:58:13.764Z,2.33
2018-06-28T16:00:54.103Z,3.43
2018-06-28T16:03:34.383Z,2.37
2018-06-28T16:06:14.730Z,2.33
2018-06-28T16:08:55.003Z,2.67
2018-06-28T16:11:35.373Z,2.80
2018-06-28T16:14:15.845Z,2.43
2018-06-28T16:16:56.186Z,2.57
2018-06-28T16:19:36.548Z,3.00
2018-06-28T16:22:16.832Z,2.87
2018-06-28T16:24:57.064Z,2.53
2018-06-28T16:27:37.463Z,2.40
2018-06-28T16:30:17.864Z,2.90
2018-06-28T16:32:58.256Z,2.30
2018-06-28T16:35:38.571Z,2.10
2018-06-28T16:38:18.672Z,2.60
2018-06-28T16:40:59.012Z,2.60
2018-06-28T16:43:39.231Z,3.30
2018-06-28T16:46:19.419Z,3.00
2018-06-28T16:48:59.525Z,3.50
2018-06-28T16:51:39.614Z,2.57
2018-06-28T16:54:20.140Z,3.30
2018-06-28T16:57:00.171Z,2.53
2018-06-28T16:59:40.436Z,3.10
2018-06-28T17:02:20.694Z,2.40
2018-06-28T17:05:00.779Z,3.53
2018-06-28T17:07:41.166Z,2.57
2018-06-28T17:10:21.599Z,4.30
2018-06-28T17:13:01.953Z,2.97
2018-06-28T17:15:42.044Z,2.87
2018-06-28T17:18:22.288Z,2.70
2018-06-28T17:21:02.644Z,2.67
2018-06-28T17:23:42.868Z,2.40
2018-06-28T17:26:23.042Z,3.00
2018-06-28T17:29:04.216Z,3.10
2018-06-28T17:31:44.437Z,2.80
2018-06-28T17:34:24.698Z,2.60
2018-06-28T17:37:04.793Z,2.43
2018-06-28T17:39:45.339Z,2.63
2018-06-28T17:42:25.659Z,2.47
2018-06-28T17:45:05.988Z,3.00
2018-06-28T17:47:47.061Z,3.00
2018-06-28T17:50:27.395Z,2.57
2018-06-28T17:53:07.815Z,2.90
2018-06-28T17:55:48.170Z,3.17
2018-06-28T17:58:28.329Z,2.27
2018-06-28T18:01:08.572Z,2.50
2018-06-28T18:03:48.761Z,2.50
2018-06-28T18:06:29.130Z,3.10
2018-06-28T18:09:09.707Z,2.50
2018-06-28T18:11:49.961Z,2.53
2018-06-28T18:14:30.427Z,3.87
2018-06-28T18:17:10.558Z,4.03
2018-06-28T18:19:50.720Z,2.87
2018-06-28T18:22:31.001Z,2.53
2018-06-28T18:25:11.350Z,2.77
2018-06-28T18:27:51.653Z,2.27
2018-06-28T18:30:31.953Z,2.50
2018-06-28T18:33:12.072Z,2.83
2018-06-28T18:35:52.407Z,3.80
2018-06-28T18:38:33.016Z,3.63
2018-06-28T18:41:13.753Z,2.23
2018-06-28T18:43:54.085Z,2.60
2018-06-28T18:46:34.364Z,3.47
2018-06-28T18:49:14.642Z,2.50
2018-06-28T18:51:54.696Z,2.70
2018-06-28T18:54:34.907Z,2.70
2018-06-28T18:57:15.289Z,2.60
2018-06-28T18:59:55.736Z,3.27
2018-06-28T19:02:35.952Z,2.70
2018-06-28T19:05:15.981Z,2.50
2018-06-28T19:07:56.484Z,2.60
2018-06-28T19:10:42.380Z,3.13
2018-06-28T19:13:23.857Z,3.93
2018-06-28T19:16:10.045Z,3.60
2018-06-28T19:18:50.199Z,3.77
2018-06-28T19:21:35.984Z,2.83
2018-06-28T19:24:16.109Z,4.20
2018-06-28T19:26:56.221Z,3.10
2018-06-28T19:29:42.001Z,2.60
2018-06-28T19:32:27.978Z,2.63
2018-06-28T19:35:08.581Z,2.87
2018-06-28T19:37:50.052Z,2.90
2018-06-28T19:40:35.708Z,3.10
2018-06-28T19:43:15.864Z,3.43
2018-06-28T19:45:55.956Z,3.03
2018-06-28T19:48:36.113Z,2.97
2018-06-28T19:51:22.026Z,3.00
2018-06-28T19:54:02.191Z,3.00
2018-06-28T19:56:42.384Z,3.20
2018-06-28T19:59:22.671Z,4.47
2018-06-28T20:02:08.808Z,4.93
2018-06-28T20:04:49.096Z,3.37
2018-06-28T20:07:29.422Z,5.17
2018-06-28T20:10:09.407Z,4.70
2018-06-28T20:12:55.193Z,5.00
2018-06-28T20:16:55.969Z,3.67
2018-06-28T20:19:42.140Z,3.73
2018-06-28T20:22:22.702Z,3.40
2018-06-28T20:25:02.882Z,3.07
2018-06-28T20:27:48.760Z,3.30
2018-06-28T20:30:34.594Z,8.23
2018-06-28T20:33:20.433Z,3.90
2018-06-28T20:36:00.990Z,3.50
2018-06-28T20:38:41.208Z,2.60
2018-06-28T20:41:21.497Z,3.50
2018-06-28T20:44:01.877Z,3.30
2018-06-28T20:46:42.253Z,3.40
2018-06-28T20:49:22.468Z,3.60
2018-06-28T20:52:02.713Z,3.20
2018-06-28T20:54:42.865Z,2.77
2018-06-28T20:57:22.908Z,2.57
2018-06-28T21:00:04.000Z,2.60
2018-06-28T21:02:44.480Z,3.80
2018-06-28T21:05:24.580Z,3.37
2018-06-28T21:08:04.972Z,2.97
2018-06-28T21:10:45.216Z,3.37
2018-06-28T21:13:25.269Z,3.30
2018-06-28T21:16:05.674Z,2.87
2018-06-28T21:18:45.824Z,3.37
2018-06-28T21:21:26.071Z,3.07
2018-06-28T21:24:06.329Z,2.90
2018-06-28T21:26:46.780Z,3.40
2018-06-28T21:29:27.067Z,3.47
2018-06-28T21:32:07.308Z,2.80
2018-06-28T21:34:47.608Z,3.03
2018-06-28T21:37:27.914Z,3.40
2018-06-28T21:40:08.174Z,3.67
2018-06-28T21:42:48.548Z,3.20
2018-06-28T21:45:28.991Z,3.40
2018-06-28T21:48:09.529Z,3.07
2018-06-28T21:50:49.719Z,3.50
2018-06-28T21:53:30.077Z,2.80
2018-06-28T21:56:10.319Z,2.73
2018-06-28T21:58:50.679Z,3.33
2018-06-28T22:01:30.758Z,2.80
2018-06-28T22:04:10.813Z,3.53
2018-06-28T22:06:51.145Z,3.17
2018-06-28T22:09:31.354Z,3.70
2018-06-28T22:12:11.457Z,3.43
2018-06-28T22:14:51.519Z,2.60
2018-06-28T22:17:31.762Z,2.87
2018-06-28T22:20:12.041Z,3.43
2018-06-28T22:22:52.228Z,2.80
2018-06-28T22:25:32.444Z,2.70
2018-06-28T22:28:12.820Z,2.83
2018-06-28T22:30:53.216Z,3.13
2018-06-28T22:33:33.319Z,3.20
2018-06-28T22:36:13.584Z,2.93
2018-06-28T22:38:54.051Z,2.80
2018-06-28T22:41:34.214Z,2.90
2018-06-28T22:44:14.460Z,2.27
2018-06-28T22:46:54.696Z,2.70
2018-06-28T22:49:34.914Z,2.30
2018-06-28T22:52:15.333Z,2.80
2018-06-28T22:54:56.047Z,2.60
2018-06-28T22:57:36.168Z,3.20
2018-06-28T23:00:20.076Z,2.23
2018-06-28T23:03:00.161Z,2.63
2018-06-28T23:05:40.493Z,2.40
2018-06-28T23:08:20.872Z,2.20
2018-06-28T23:11:01.466Z,2.60
2018-06-28T23:13:41.604Z,2.30
2018-06-28T23:16:21.802Z,2.47
2018-06-28T23:19:02.144Z,2.63
2018-06-28T23:21:42.478Z,2.13
2018-06-28T23:24:22.656Z,2.57
2018-06-28T23:27:02.917Z,2.00
2018-06-28T23:29:42.811Z,1.93
2018-06-28T23:32:22.999Z,2.47
2018-06-28T23:35:03.788Z,1.93
2018-06-28T23:37:44.105Z,2.90
2018-06-28T23:40:24.293Z,2.50
2018-06-28T23:43:04.445Z,2.90
2018-06-28T23:45:44.700Z,2.23
2018-06-28T23:48:24.755Z,2.70
2018-06-28T23:51:05.083Z,2.60
2018-06-28T23:53:45.396Z,2.60
2018-06-28T23:56:25.708Z,2.70
2018-06-28T23:59:06.023Z,2.30
